sensor_id;sensor_type;location;lat;lon;timestamp;temperature;humidity
27540;DHT22;15906;52.046;4.724;2022-10-31T00:01:17;13.20;99.90
27540;DHT22;15906;52.046;4.724;2022-10-31T00:03:43;13.20;99.90
27540;DHT22;15906;52.046;4.724;2022-10-31T00:06:09;13.20;99.90
27540;DHT22;15906;52.046;4.724;2022-10-31T00:08:34;13.10;99.90
27540;DHT22;15906;52.046;4.724;2022-10-31T00:11:00;13.00;99.90
27540;DHT22;15906;52.046;4.724;2022-10-31T00:13:25;12.90;99.90
27540;DHT22;15906;52.046;4.724;2022-10-31T00:15:51;12.90;99.90
27540;DHT22;15906;52.046;4.724;2022-10-31T00:18:16;12.80;99.90
27540;DHT22;15906;52.046;4.724;2022-10-31T00:20:42;12.80;99.90
27540;DHT22;15906;52.046;4.724;2022-10-31T00:23:08;12.80;99.90
27540;DHT22;15906;52.046;4.724;2022-10-31T00:25:36;12.70;99.90
27540;DHT22;15906;52.046;4.724;2022-10-31T00:28:03;12.80;99.90
27540;DHT22;15906;52.046;4.724;2022-10-31T00:30:28;12.90;99.90
27540;DHT22;15906;52.046;4.724;2022-10-31T00:32:54;12.80;99.90
27540;DHT22;15906;52.046;4.724;2022-10-31T00:35:19;12.70;99.90
27540;DHT22;15906;52.046;4.724;2022-10-31T00:37:45;12.80;99.90
27540;DHT22;15906;52.046;4.724;2022-10-31T00:40:11;12.70;99.90
27540;DHT22;15906;52.046;4.724;2022-10-31T00:42:36;12.70;99.90
27540;DHT22;15906;52.046;4.724;2022-10-31T00:45:02;12.70;99.90
27540;DHT22;15906;52.046;4.724;2022-10-31T00:47:28;12.70;99.90
27540;DHT22;15906;52.046;4.724;2022-10-31T00:49:53;12.80;99.90
27540;DHT22;15906;52.046;4.724;2022-10-31T00:52:19;12.70;99.90
27540;DHT22;15906;52.046;4.724;2022-10-31T00:54:44;12.70;99.90
27540;DHT22;15906;52.046;4.724;2022-10-31T00:57:10;12.70;99.90
27540;DHT22;15906;52.046;4.724;2022-10-31T00:59:35;12.60;99.90
27540;DHT22;15906;52.046;4.724;2022-10-31T01:02:01;12.60;99.90
27540;DHT22;15906;52.046;4.724;2022-10-31T01:04:26;12.70;99.90
27540;DHT22;15906;52.046;4.724;2022-10-31T01:06:52;12.50;99.90
27540;DHT22;15906;52.046;4.724;2022-10-31T01:09:17;12.50;99.90
27540;DHT22;15906;52.046;4.724;2022-10-31T01:11:43;12.50;99.90
27540;DHT22;15906;52.046;4.724;2022-10-31T01:14:09;12.40;99.90
27540;DHT22;15906;52.046;4.724;2022-10-31T01:16:35;12.40;99.90
27540;DHT22;15906;52.046;4.724;2022-10-31T01:19:00;12.40;99.90
27540;DHT22;15906;52.046;4.724;2022-10-31T01:21:27;12.40;99.90
27540;DHT22;15906;52.046;4.724;2022-10-31T01:23:54;12.40;99.90
27540;DHT22;15906;52.046;4.724;2022-10-31T01:26:25;12.40;99.90
27540;DHT22;15906;52.046;4.724;2022-10-31T01:28:56;12.40;99.90
27540;DHT22;15906;52.046;4.724;2022-10-31T01:31:23;12.40;99.90
27540;DHT22;15906;52.046;4.724;2022-10-31T01:33:49;12.40;99.90
27540;DHT22;15906;52.046;4.724;2022-10-31T01:36:18;12.30;99.90
27540;DHT22;15906;52.046;4.724;2022-10-31T01:38:45;12.30;99.90
27540;DHT22;15906;52.046;4.724;2022-10-31T01:41:13;12.30;99.90
27540;DHT22;15906;52.046;4.724;2022-10-31T01:44:01;12.40;99.90
27540;DHT22;15906;52.046;4.724;2022-10-31T01:46:36;12.40;99.90
27540;DHT22;15906;52.046;4.724;2022-10-31T01:49:11;12.40;99.90
27540;DHT22;15906;52.046;4.724;2022-10-31T01:51:42;12.40;99.90
27540;DHT22;15906;52.046;4.724;2022-10-31T01:54:13;12.40;99.90
27540;DHT22;15906;52.046;4.724;2022-10-31T01:56:43;12.40;99.90
27540;DHT22;15906;52.046;4.724;2022-10-31T01:59:12;12.40;99.90
27540;DHT22;15906;52.046;4.724;2022-10-31T02:01:38;12.40;99.90
27540;DHT22;15906;52.046;4.724;2022-10-31T02:04:06;12.40;99.90
27540;DHT22;15906;52.046;4.724;2022-10-31T02:07:02;12.40;99.90
27540;DHT22;15906;52.046;4.724;2022-10-31T02:09:30;12.40;99.90
27540;DHT22;15906;52.046;4.724;2022-10-31T02:11:58;12.60;99.90
27540;DHT22;15906;52.046;4.724;2022-10-31T02:14:26;12.50;99.90
27540;DHT22;15906;52.046;4.724;2022-10-31T02:16:56;12.50;99.90
27540;DHT22;15906;52.046;4.724;2022-10-31T02:19:29;12.50;99.90
27540;DHT22;15906;52.046;4.724;2022-10-31T02:22:05;12.60;99.90
27540;DHT22;15906;52.046;4.724;2022-10-31T02:31:00;12.40;99.90
27540;DHT22;15906;52.046;4.724;2022-10-31T02:33:43;12.30;99.90
27540;DHT22;15906;52.046;4.724;2022-10-31T02:36:25;12.30;99.90
27540;DHT22;15906;52.046;4.724;2022-10-31T02:41:34;12.30;99.90
27540;DHT22;15906;52.046;4.724;2022-10-31T02:44:07;12.30;99.90
27540;DHT22;15906;52.046;4.724;2022-10-31T02:46:48;12.20;99.90
27540;DHT22;15906;52.046;4.724;2022-10-31T02:49:34;12.10;99.90
27540;DHT22;15906;52.046;4.724;2022-10-31T02:52:01;12.10;99.90
27540;DHT22;15906;52.046;4.724;2022-10-31T02:54:28;12.00;99.90
27540;DHT22;15906;52.046;4.724;2022-10-31T02:57:01;12.10;99.90
27540;DHT22;15906;52.046;4.724;2022-10-31T02:59:28;12.00;99.90
27540;DHT22;15906;52.046;4.724;2022-10-31T03:10:35;12.20;99.90
27540;DHT22;15906;52.046;4.724;2022-10-31T03:13:23;12.30;99.90
27540;DHT22;15906;52.046;4.724;2022-10-31T03:16:00;12.20;99.90
27540;DHT22;15906;52.046;4.724;2022-10-31T03:18:34;12.20;99.90
27540;DHT22;15906;52.046;4.724;2022-10-31T03:21:12;12.10;99.90
27540;DHT22;15906;52.046;4.724;2022-10-31T03:23:40;12.00;99.90
27540;DHT22;15906;52.046;4.724;2022-10-31T03:26:09;11.90;99.90
27540;DHT22;15906;52.046;4.724;2022-10-31T03:28:53;11.80;99.90
27540;DHT22;15906;52.046;4.724;2022-10-31T03:31:23;11.80;99.90
27540;DHT22;15906;52.046;4.724;2022-10-31T03:33:51;11.90;99.90
27540;DHT22;15906;52.046;4.724;2022-10-31T03:36:17;11.80;99.90
27540;DHT22;15906;52.046;4.724;2022-10-31T03:38:45;11.80;99.90
27540;DHT22;15906;52.046;4.724;2022-10-31T03:41:16;11.70;99.90
27540;DHT22;15906;52.046;4.724;2022-10-31T03:43:49;11.80;99.90
27540;DHT22;15906;52.046;4.724;2022-10-31T03:46:17;11.70;99.90
27540;DHT22;15906;52.046;4.724;2022-10-31T03:48:43;11.70;99.90
27540;DHT22;15906;52.046;4.724;2022-10-31T03:51:22;11.80;99.90
27540;DHT22;15906;52.046;4.724;2022-10-31T03:53:52;11.80;99.90
27540;DHT22;15906;52.046;4.724;2022-10-31T03:56:29;11.70;99.90
27540;DHT22;15906;52.046;4.724;2022-10-31T03:59:02;11.70;99.90
27540;DHT22;15906;52.046;4.724;2022-10-31T04:01:31;11.70;99.90
27540;DHT22;15906;52.046;4.724;2022-10-31T04:03:59;11.70;99.90
27540;DHT22;15906;52.046;4.724;2022-10-31T04:06:25;11.70;99.90
27540;DHT22;15906;52.046;4.724;2022-10-31T04:08:56;11.70;99.90
27540;DHT22;15906;52.046;4.724;2022-10-31T04:11:26;11.70;99.90
27540;DHT22;15906;52.046;4.724;2022-10-31T04:13:54;11.70;99.90
27540;DHT22;15906;52.046;4.724;2022-10-31T04:16:21;11.80;99.90
27540;DHT22;15906;52.046;4.724;2022-10-31T04:18:48;11.80;99.90
27540;DHT22;15906;52.046;4.724;2022-10-31T04:21:13;11.80;99.90
27540;DHT22;15906;52.046;4.724;2022-10-31T04:23:39;11.80;99.90
27540;DHT22;15906;52.046;4.724;2022-10-31T04:26:05;11.70;99.90
27540;DHT22;15906;52.046;4.724;2022-10-31T04:28:30;11.80;99.90
27540;DHT22;15906;52.046;4.724;2022-10-31T04:30:58;11.70;99.90
27540;DHT22;15906;52.046;4.724;2022-10-31T04:33:23;11.70;99.90
27540;DHT22;15906;52.046;4.724;2022-10-31T04:35:49;11.70;99.90
27540;DHT22;15906;52.046;4.724;2022-10-31T04:38:14;11.80;99.90
27540;DHT22;15906;52.046;4.724;2022-10-31T04:40:40;11.70;99.90
27540;DHT22;15906;52.046;4.724;2022-10-31T04:43:05;11.70;99.90
27540;DHT22;15906;52.046;4.724;2022-10-31T04:45:31;11.80;99.90
27540;DHT22;15906;52.046;4.724;2022-10-31T04:47:56;11.80;99.90
27540;DHT22;15906;52.046;4.724;2022-10-31T04:50:22;11.80;99.90
27540;DHT22;15906;52.046;4.724;2022-10-31T04:52:47;11.80;99.90
27540;DHT22;15906;52.046;4.724;2022-10-31T04:55:13;11.80;99.90
27540;DHT22;15906;52.046;4.724;2022-10-31T04:57:43;11.80;99.90
27540;DHT22;15906;52.046;4.724;2022-10-31T05:00:09;11.80;99.90
27540;DHT22;15906;52.046;4.724;2022-10-31T05:02:43;11.80;99.90
27540;DHT22;15906;52.046;4.724;2022-10-31T05:05:08;11.80;99.90
27540;DHT22;15906;52.046;4.724;2022-10-31T05:07:38;11.80;99.90
27540;DHT22;15906;52.046;4.724;2022-10-31T05:10:05;11.90;99.90
27540;DHT22;15906;52.046;4.724;2022-10-31T05:12:30;11.70;99.90
27540;DHT22;15906;52.046;4.724;2022-10-31T05:14:56;11.80;99.90
27540;DHT22;15906;52.046;4.724;2022-10-31T05:17:21;11.80;99.90
27540;DHT22;15906;52.046;4.724;2022-10-31T05:19:47;11.80;99.90
27540;DHT22;15906;52.046;4.724;2022-10-31T05:22:12;11.80;99.90
27540;DHT22;15906;52.046;4.724;2022-10-31T05:24:38;11.70;99.90
27540;DHT22;15906;52.046;4.724;2022-10-31T05:27:03;11.70;99.90
27540;DHT22;15906;52.046;4.724;2022-10-31T05:29:29;11.60;99.90
27540;DHT22;15906;52.046;4.724;2022-10-31T05:31:58;11.70;99.90
27540;DHT22;15906;52.046;4.724;2022-10-31T05:34:24;11.70;99.90
27540;DHT22;15906;52.046;4.724;2022-10-31T05:36:49;11.70;99.90
27540;DHT22;15906;52.046;4.724;2022-10-31T05:39:15;11.60;99.90
27540;DHT22;15906;52.046;4.724;2022-10-31T05:41:40;11.60;99.90
27540;DHT22;15906;52.046;4.724;2022-10-31T05:44:06;11.70;99.90
27540;DHT22;15906;52.046;4.724;2022-10-31T05:46:31;11.70;99.90
27540;DHT22;15906;52.046;4.724;2022-10-31T05:48:57;11.70;99.90
27540;DHT22;15906;52.046;4.724;2022-10-31T05:51:22;11.60;99.90
27540;DHT22;15906;52.046;4.724;2022-10-31T05:53:48;11.60;99.90
27540;DHT22;15906;52.046;4.724;2022-10-31T05:56:13;11.60;99.90
27540;DHT22;15906;52.046;4.724;2022-10-31T05:58:39;11.60;99.90
27540;DHT22;15906;52.046;4.724;2022-10-31T06:01:05;11.60;99.90
27540;DHT22;15906;52.046;4.724;2022-10-31T06:03:30;11.50;99.90
27540;DHT22;15906;52.046;4.724;2022-10-31T06:05:56;11.50;99.90
27540;DHT22;15906;52.046;4.724;2022-10-31T06:08:22;11.50;99.90
27540;DHT22;15906;52.046;4.724;2022-10-31T06:10:47;11.30;99.90
27540;DHT22;15906;52.046;4.724;2022-10-31T06:13:13;11.30;99.90
27540;DHT22;15906;52.046;4.724;2022-10-31T06:15:38;11.30;99.90
27540;DHT22;15906;52.046;4.724;2022-10-31T06:18:05;11.30;99.90
27540;DHT22;15906;52.046;4.724;2022-10-31T06:20:32;11.40;99.90
27540;DHT22;15906;52.046;4.724;2022-10-31T06:22:58;11.30;99.90
27540;DHT22;15906;52.046;4.724;2022-10-31T06:25:24;11.30;99.90
27540;DHT22;15906;52.046;4.724;2022-10-31T06:27:49;11.30;99.90
27540;DHT22;15906;52.046;4.724;2022-10-31T06:30:15;11.30;99.90
27540;DHT22;15906;52.046;4.724;2022-10-31T06:32:40;11.30;99.90
27540;DHT22;15906;52.046;4.724;2022-10-31T06:35:06;11.30;99.90
27540;DHT22;15906;52.046;4.724;2022-10-31T06:37:32;11.30;99.90
27540;DHT22;15906;52.046;4.724;2022-10-31T06:39:57;11.30;99.90
27540;DHT22;15906;52.046;4.724;2022-10-31T06:42:23;11.20;99.90
27540;DHT22;15906;52.046;4.724;2022-10-31T06:44:48;11.20;99.90
27540;DHT22;15906;52.046;4.724;2022-10-31T06:47:13;11.20;99.90
27540;DHT22;15906;52.046;4.724;2022-10-31T06:49:39;11.20;99.90
27540;DHT22;15906;52.046;4.724;2022-10-31T06:52:05;11.20;99.90
27540;DHT22;15906;52.046;4.724;2022-10-31T06:54:30;11.20;99.90
27540;DHT22;15906;52.046;4.724;2022-10-31T06:56:56;11.20;99.90
27540;DHT22;15906;52.046;4.724;2022-10-31T06:59:21;11.20;99.90
27540;DHT22;15906;52.046;4.724;2022-10-31T07:01:47;11.20;99.90
27540;DHT22;15906;52.046;4.724;2022-10-31T07:04:12;11.10;99.90
27540;DHT22;15906;52.046;4.724;2022-10-31T07:06:38;11.10;99.90
27540;DHT22;15906;52.046;4.724;2022-10-31T07:09:04;11.00;99.90
27540;DHT22;15906;52.046;4.724;2022-10-31T07:11:29;11.00;99.90
27540;DHT22;15906;52.046;4.724;2022-10-31T07:13:56;11.00;99.90
27540;DHT22;15906;52.046;4.724;2022-10-31T07:16:21;10.90;99.90
27540;DHT22;15906;52.046;4.724;2022-10-31T07:18:47;10.90;99.90
27540;DHT22;15906;52.046;4.724;2022-10-31T07:21:12;10.80;99.90
27540;DHT22;15906;52.046;4.724;2022-10-31T07:23:38;10.80;99.90
27540;DHT22;15906;52.046;4.724;2022-10-31T07:26:03;10.70;99.90
27540;DHT22;15906;52.046;4.724;2022-10-31T07:28:29;10.70;99.90
27540;DHT22;15906;52.046;4.724;2022-10-31T07:30:56;10.70;99.90
27540;DHT22;15906;52.046;4.724;2022-10-31T07:33:22;10.70;99.90
27540;DHT22;15906;52.046;4.724;2022-10-31T07:35:48;10.70;99.90
27540;DHT22;15906;52.046;4.724;2022-10-31T07:38:14;10.70;99.90
27540;DHT22;15906;52.046;4.724;2022-10-31T07:40:41;10.80;99.90
27540;DHT22;15906;52.046;4.724;2022-10-31T07:43:08;10.80;99.90
27540;DHT22;15906;52.046;4.724;2022-10-31T07:45:35;10.80;99.90
27540;DHT22;15906;52.046;4.724;2022-10-31T07:48:01;10.90;99.90
27540;DHT22;15906;52.046;4.724;2022-10-31T07:50:30;10.90;99.90
27540;DHT22;15906;52.046;4.724;2022-10-31T07:53:07;11.00;99.90
27540;DHT22;15906;52.046;4.724;2022-10-31T07:55:34;11.00;99.90
27540;DHT22;15906;52.046;4.724;2022-10-31T07:58:12;11.10;99.90
27540;DHT22;15906;52.046;4.724;2022-10-31T08:00:40;11.00;99.90
27540;DHT22;15906;52.046;4.724;2022-10-31T08:03:08;11.10;99.90
27540;DHT22;15906;52.046;4.724;2022-10-31T08:05:35;11.20;99.90
27540;DHT22;15906;52.046;4.724;2022-10-31T08:08:01;11.30;99.90
27540;DHT22;15906;52.046;4.724;2022-10-31T08:10:27;11.30;99.90
27540;DHT22;15906;52.046;4.724;2022-10-31T08:13:02;11.40;99.90
27540;DHT22;15906;52.046;4.724;2022-10-31T08:15:28;11.40;99.90
27540;DHT22;15906;52.046;4.724;2022-10-31T08:17:54;11.40;99.90
27540;DHT22;15906;52.046;4.724;2022-10-31T08:20:20;11.40;99.90
27540;DHT22;15906;52.046;4.724;2022-10-31T08:22:53;11.50;99.90
27540;DHT22;15906;52.046;4.724;2022-10-31T08:25:19;11.60;99.90
27540;DHT22;15906;52.046;4.724;2022-10-31T08:27:55;11.50;99.90
27540;DHT22;15906;52.046;4.724;2022-10-31T08:30:22;11.50;99.90
27540;DHT22;15906;52.046;4.724;2022-10-31T08:33:06;11.60;99.90
27540;DHT22;15906;52.046;4.724;2022-10-31T08:35:34;11.70;99.90
27540;DHT22;15906;52.046;4.724;2022-10-31T08:38:00;11.70;99.90
27540;DHT22;15906;52.046;4.724;2022-10-31T08:40:27;11.80;99.90
27540;DHT22;15906;52.046;4.724;2022-10-31T08:43:13;11.90;99.90
27540;DHT22;15906;52.046;4.724;2022-10-31T08:45:40;11.80;99.90
27540;DHT22;15906;52.046;4.724;2022-10-31T08:48:09;11.80;99.90
27540;DHT22;15906;52.046;4.724;2022-10-31T08:50:36;12.00;99.90
27540;DHT22;15906;52.046;4.724;2022-10-31T08:53:27;12.10;99.90
27540;DHT22;15906;52.046;4.724;2022-10-31T08:55:55;12.10;99.90
27540;DHT22;15906;52.046;4.724;2022-10-31T08:58:21;12.40;99.90
27540;DHT22;15906;52.046;4.724;2022-10-31T09:00:49;12.60;99.90
27540;DHT22;15906;52.046;4.724;2022-10-31T09:03:17;12.90;99.90
27540;DHT22;15906;52.046;4.724;2022-10-31T09:05:43;13.10;99.90
27540;DHT22;15906;52.046;4.724;2022-10-31T09:08:09;13.30;99.90
27540;DHT22;15906;52.046;4.724;2022-10-31T09:10:36;13.50;99.90
27540;DHT22;15906;52.046;4.724;2022-10-31T09:13:10;13.50;99.90
27540;DHT22;15906;52.046;4.724;2022-10-31T09:15:38;13.80;99.90
27540;DHT22;15906;52.046;4.724;2022-10-31T09:18:05;14.00;99.90
27540;DHT22;15906;52.046;4.724;2022-10-31T09:20:32;14.10;99.90
27540;DHT22;15906;52.046;4.724;2022-10-31T09:22:59;14.20;99.90
27540;DHT22;15906;52.046;4.724;2022-10-31T09:25:25;14.20;99.90
27540;DHT22;15906;52.046;4.724;2022-10-31T09:27:51;14.10;99.90
27540;DHT22;15906;52.046;4.724;2022-10-31T09:30:20;14.20;99.90
27540;DHT22;15906;52.046;4.724;2022-10-31T09:32:45;14.10;99.90
27540;DHT22;15906;52.046;4.724;2022-10-31T09:35:11;14.10;99.90
27540;DHT22;15906;52.046;4.724;2022-10-31T09:37:36;14.00;99.90
27540;DHT22;15906;52.046;4.724;2022-10-31T09:40:02;14.00;99.90
27540;DHT22;15906;52.046;4.724;2022-10-31T09:42:47;14.00;99.90
27540;DHT22;15906;52.046;4.724;2022-10-31T09:48:12;14.00;99.90
27540;DHT22;15906;52.046;4.724;2022-10-31T09:50:44;13.90;99.90
27540;DHT22;15906;52.046;4.724;2022-10-31T09:56:19;14.00;99.90
27540;DHT22;15906;52.046;4.724;2022-10-31T09:58:51;13.90;99.90
27540;DHT22;15906;52.046;4.724;2022-10-31T10:04:17;14.00;99.90
27540;DHT22;15906;52.046;4.724;2022-10-31T10:06:48;13.90;99.90
27540;DHT22;15906;52.046;4.724;2022-10-31T10:09:14;14.00;99.90
27540;DHT22;15906;52.046;4.724;2022-10-31T10:22:46;14.10;99.90
27540;DHT22;15906;52.046;4.724;2022-10-31T10:25:16;14.10;99.90
27540;DHT22;15906;52.046;4.724;2022-10-31T10:32:56;14.30;99.90
27540;DHT22;15906;52.046;4.724;2022-10-31T10:35:39;14.20;99.90
27540;DHT22;15906;52.046;4.724;2022-10-31T10:41:02;14.40;99.90
27540;DHT22;15906;52.046;4.724;2022-10-31T10:43:36;14.60;99.90
27540;DHT22;15906;52.046;4.724;2022-10-31T10:46:26;15.10;99.90
27540;DHT22;15906;52.046;4.724;2022-10-31T10:49:25;15.40;99.90
27540;DHT22;15906;52.046;4.724;2022-10-31T10:52:06;15.80;99.90
27540;DHT22;15906;52.046;4.724;2022-10-31T10:54:54;16.10;99.90
27540;DHT22;15906;52.046;4.724;2022-10-31T11:00:40;15.90;99.90
27540;DHT22;15906;52.046;4.724;2022-10-31T11:03:06;15.70;99.90
27540;DHT22;15906;52.046;4.724;2022-10-31T11:08:03;15.60;99.90
27540;DHT22;15906;52.046;4.724;2022-10-31T11:10:29;15.50;99.90
27540;DHT22;15906;52.046;4.724;2022-10-31T11:15:39;15.50;99.90
27540;DHT22;15906;52.046;4.724;2022-10-31T11:18:21;15.40;99.90
27540;DHT22;15906;52.046;4.724;2022-10-31T11:20:52;15.50;99.90
27540;DHT22;15906;52.046;4.724;2022-10-31T11:23:20;15.50;99.90
27540;DHT22;15906;52.046;4.724;2022-10-31T11:25:51;15.50;99.90
27540;DHT22;15906;52.046;4.724;2022-10-31T11:28:17;15.40;99.90
27540;DHT22;15906;52.046;4.724;2022-10-31T11:30:52;15.40;99.90
27540;DHT22;15906;52.046;4.724;2022-10-31T11:35:50;15.40;99.90
27540;DHT22;15906;52.046;4.724;2022-10-31T11:38:20;15.50;99.90
27540;DHT22;15906;52.046;4.724;2022-10-31T11:40:57;15.50;99.90
27540;DHT22;15906;52.046;4.724;2022-10-31T11:43:23;15.50;99.90
27540;DHT22;15906;52.046;4.724;2022-10-31T11:45:49;15.50;99.90
27540;DHT22;15906;52.046;4.724;2022-10-31T11:48:21;15.50;99.90
27540;DHT22;15906;52.046;4.724;2022-10-31T11:50:50;15.50;99.90
27540;DHT22;15906;52.046;4.724;2022-10-31T11:53:29;15.50;99.90
27540;DHT22;15906;52.046;4.724;2022-10-31T11:56:13;15.60;99.90
27540;DHT22;15906;52.046;4.724;2022-10-31T11:58:39;15.50;99.90
27540;DHT22;15906;52.046;4.724;2022-10-31T12:01:06;15.60;99.90
27540;DHT22;15906;52.046;4.724;2022-10-31T12:04:17;15.60;99.90
27540;DHT22;15906;52.046;4.724;2022-10-31T12:06:44;15.60;99.90
27540;DHT22;15906;52.046;4.724;2022-10-31T12:09:28;15.60;99.90
27540;DHT22;15906;52.046;4.724;2022-10-31T12:14:35;15.70;99.90
27540;DHT22;15906;52.046;4.724;2022-10-31T12:17:16;15.70;99.90
27540;DHT22;15906;52.046;4.724;2022-10-31T12:25:12;15.80;99.90
27540;DHT22;15906;52.046;4.724;2022-10-31T12:42:07;16.10;99.90
27540;DHT22;15906;52.046;4.724;2022-10-31T12:45:03;16.20;99.90
27540;DHT22;15906;52.046;4.724;2022-10-31T12:47:54;16.30;99.90
27540;DHT22;15906;52.046;4.724;2022-10-31T12:53:42;16.10;99.90
27540;DHT22;15906;52.046;4.724;2022-10-31T12:56:27;16.10;99.90
27540;DHT22;15906;52.046;4.724;2022-10-31T12:59:06;16.10;99.90
27540;DHT22;15906;52.046;4.724;2022-10-31T13:02:00;16.10;99.90
27540;DHT22;15906;52.046;4.724;2022-10-31T13:05:01;16.10;99.90
27540;DHT22;15906;52.046;4.724;2022-10-31T13:07:40;16.00;99.90
27540;DHT22;15906;52.046;4.724;2022-10-31T13:10:29;16.00;99.90
27540;DHT22;15906;52.046;4.724;2022-10-31T13:12:55;16.00;99.90
27540;DHT22;15906;52.046;4.724;2022-10-31T13:15:26;16.00;99.90
27540;DHT22;15906;52.046;4.724;2022-10-31T13:18:04;16.00;99.90
27540;DHT22;15906;52.046;4.724;2022-10-31T13:20:39;16.00;99.90
27540;DHT22;15906;52.046;4.724;2022-10-31T13:23:17;16.00;99.90
27540;DHT22;15906;52.046;4.724;2022-10-31T13:25:49;16.00;99.90
27540;DHT22;15906;52.046;4.724;2022-10-31T13:31:08;15.90;99.90
27540;DHT22;15906;52.046;4.724;2022-10-31T13:33:45;15.90;99.90
27540;DHT22;15906;52.046;4.724;2022-10-31T13:39:09;16.00;99.90
27540;DHT22;15906;52.046;4.724;2022-10-31T13:44:25;16.00;99.90
27540;DHT22;15906;52.046;4.724;2022-10-31T13:46:53;16.00;99.90
27540;DHT22;15906;52.046;4.724;2022-10-31T13:57:30;16.00;99.90
27540;DHT22;15906;52.046;4.724;2022-10-31T14:00:03;16.00;99.90
27540;DHT22;15906;52.046;4.724;2022-10-31T14:02:35;16.00;99.90
27540;DHT22;15906;52.046;4.724;2022-10-31T14:05:04;16.10;99.90
27540;DHT22;15906;52.046;4.724;2022-10-31T14:07:31;16.00;99.90
27540;DHT22;15906;52.046;4.724;2022-10-31T14:12:49;16.10;99.90
27540;DHT22;15906;52.046;4.724;2022-10-31T14:15:24;16.20;99.90
27540;DHT22;15906;52.046;4.724;2022-10-31T14:17:56;16.10;99.90
27540;DHT22;15906;52.046;4.724;2022-10-31T14:20:43;16.00;99.90
27540;DHT22;15906;52.046;4.724;2022-10-31T14:28:52;15.90;99.90
27540;DHT22;15906;52.046;4.724;2022-10-31T14:33:52;16.00;99.90
27540;DHT22;15906;52.046;4.724;2022-10-31T14:36:26;16.00;99.90
27540;DHT22;15906;52.046;4.724;2022-10-31T14:39:05;15.90;99.90
27540;DHT22;15906;52.046;4.724;2022-10-31T14:47:09;15.90;99.90
27540;DHT22;15906;52.046;4.724;2022-10-31T14:50:07;15.90;99.90
27540;DHT22;15906;52.046;4.724;2022-10-31T14:52:36;15.90;99.90
27540;DHT22;15906;52.046;4.724;2022-10-31T14:55:06;15.70;99.90
27540;DHT22;15906;52.046;4.724;2022-10-31T14:57:37;15.90;99.90
27540;DHT22;15906;52.046;4.724;2022-10-31T15:00:08;15.90;99.90
27540;DHT22;15906;52.046;4.724;2022-10-31T15:02:58;15.90;99.90
27540;DHT22;15906;52.046;4.724;2022-10-31T15:05:28;15.90;99.90
27540;DHT22;15906;52.046;4.724;2022-10-31T15:07:56;16.00;99.90
27540;DHT22;15906;52.046;4.724;2022-10-31T15:10:24;16.00;99.90
27540;DHT22;15906;52.046;4.724;2022-10-31T15:12:51;15.90;99.90
27540;DHT22;15906;52.046;4.724;2022-10-31T15:15:25;15.90;99.90
27540;DHT22;15906;52.046;4.724;2022-10-31T15:17:54;15.90;99.90
27540;DHT22;15906;52.046;4.724;2022-10-31T15:20:24;15.80;99.90
27540;DHT22;15906;52.046;4.724;2022-10-31T15:22:51;15.70;99.90
27540;DHT22;15906;52.046;4.724;2022-10-31T15:25:22;15.80;99.90
27540;DHT22;15906;52.046;4.724;2022-10-31T15:27:49;15.70;99.90
27540;DHT22;15906;52.046;4.724;2022-10-31T15:30:20;15.70;99.90
27540;DHT22;15906;52.046;4.724;2022-10-31T15:32:47;15.70;99.90
27540;DHT22;15906;52.046;4.724;2022-10-31T15:35:42;15.70;99.90
27540;DHT22;15906;52.046;4.724;2022-10-31T15:38:08;15.60;99.90
27540;DHT22;15906;52.046;4.724;2022-10-31T15:40:34;15.60;99.90
27540;DHT22;15906;52.046;4.724;2022-10-31T15:43:05;15.70;99.90
27540;DHT22;15906;52.046;4.724;2022-10-31T15:45:32;15.70;99.90
27540;DHT22;15906;52.046;4.724;2022-10-31T15:48:00;15.70;99.90
27540;DHT22;15906;52.046;4.724;2022-10-31T15:50:33;15.70;99.90
27540;DHT22;15906;52.046;4.724;2022-10-31T15:53:00;15.60;99.90
27540;DHT22;15906;52.046;4.724;2022-10-31T15:55:27;15.60;99.90
27540;DHT22;15906;52.046;4.724;2022-10-31T15:58:00;15.70;99.90
27540;DHT22;15906;52.046;4.724;2022-10-31T16:00:32;15.70;99.90
27540;DHT22;15906;52.046;4.724;2022-10-31T16:05:53;15.60;99.90
27540;DHT22;15906;52.046;4.724;2022-10-31T16:13:37;15.60;99.90
27540;DHT22;15906;52.046;4.724;2022-10-31T16:16:10;15.60;99.90
27540;DHT22;15906;52.046;4.724;2022-10-31T16:18:37;15.60;99.90
27540;DHT22;15906;52.046;4.724;2022-10-31T16:21:04;15.70;99.90
27540;DHT22;15906;52.046;4.724;2022-10-31T16:23:30;15.60;99.90
27540;DHT22;15906;52.046;4.724;2022-10-31T16:25:56;15.60;99.90
27540;DHT22;15906;52.046;4.724;2022-10-31T16:28:25;15.60;99.90
27540;DHT22;15906;52.046;4.724;2022-10-31T16:30:55;15.50;99.90
27540;DHT22;15906;52.046;4.724;2022-10-31T16:33:28;15.50;99.90
27540;DHT22;15906;52.046;4.724;2022-10-31T16:35:58;15.50;99.90
27540;DHT22;15906;52.046;4.724;2022-10-31T16:38:23;15.50;99.90
27540;DHT22;15906;52.046;4.724;2022-10-31T16:40:50;15.50;99.90
27540;DHT22;15906;52.046;4.724;2022-10-31T16:43:17;15.50;99.90
27540;DHT22;15906;52.046;4.724;2022-10-31T16:45:50;15.40;99.90
27540;DHT22;15906;52.046;4.724;2022-10-31T16:48:19;15.40;99.90
27540;DHT22;15906;52.046;4.724;2022-10-31T16:50:47;15.40;99.90
27540;DHT22;15906;52.046;4.724;2022-10-31T16:53:14;15.40;99.90
27540;DHT22;15906;52.046;4.724;2022-10-31T16:55:54;15.40;99.90
27540;DHT22;15906;52.046;4.724;2022-10-31T16:58:28;15.40;99.90
27540;DHT22;15906;52.046;4.724;2022-10-31T17:00:55;15.40;99.90
27540;DHT22;15906;52.046;4.724;2022-10-31T17:03:21;15.40;99.90
27540;DHT22;15906;52.046;4.724;2022-10-31T17:05:47;15.40;99.90
27540;DHT22;15906;52.046;4.724;2022-10-31T17:08:13;15.40;99.90
27540;DHT22;15906;52.046;4.724;2022-10-31T17:10:39;15.40;99.90
27540;DHT22;15906;52.046;4.724;2022-10-31T17:13:10;15.40;99.90
27540;DHT22;15906;52.046;4.724;2022-10-31T17:15:42;15.40;99.90
27540;DHT22;15906;52.046;4.724;2022-10-31T17:18:14;15.30;99.90
27540;DHT22;15906;52.046;4.724;2022-10-31T17:20:40;15.20;99.90
27540;DHT22;15906;52.046;4.724;2022-10-31T17:23:06;15.20;99.90
27540;DHT22;15906;52.046;4.724;2022-10-31T17:25:33;15.20;99.90
27540;DHT22;15906;52.046;4.724;2022-10-31T17:28:00;15.20;99.90
27540;DHT22;15906;52.046;4.724;2022-10-31T17:30:26;15.20;99.90
27540;DHT22;15906;52.046;4.724;2022-10-31T17:32:52;15.20;99.90
27540;DHT22;15906;52.046;4.724;2022-10-31T17:35:20;15.20;99.90
27540;DHT22;15906;52.046;4.724;2022-10-31T17:37:46;15.10;99.90
27540;DHT22;15906;52.046;4.724;2022-10-31T17:40:15;15.00;99.90
27540;DHT22;15906;52.046;4.724;2022-10-31T17:42:42;14.90;99.90
27540;DHT22;15906;52.046;4.724;2022-10-31T17:45:12;14.90;99.90
27540;DHT22;15906;52.046;4.724;2022-10-31T17:47:38;14.90;99.90
27540;DHT22;15906;52.046;4.724;2022-10-31T17:50:04;14.90;99.90